Time;durP1;ratioP1;P1;durP2;ratioP2;P2;SDS_P1;SDS_P2;PMS_P1;PMS_P2;Temp;Humidity;BMP_temperature;BMP_pressure;BME280_temperature;BME280_humidity;BME280_pressure;Samples;Min_cycle;Max_cycle;Signal;HPM_P1;HPM_P2
2023/12/08 00:00:52;;;;;;;13.77;4.80;;;3.00;99.90;;;;;;4992397;28;20781;-69
2023/12/08 00:03:18;;;;;;;11.00;4.83;;;3.10;99.90;;;;;;5009985;28;20942;-69
2023/12/08 00:05:43;;;;;;;12.45;5.57;;;3.10;99.90;;;;;;5010060;28;20389;-69
2023/12/08 00:08:09;;;;;;;11.67;5.00;;;3.10;99.90;;;;;;5008154;28;20504;-69
2023/12/08 00:10:34;;;;;;;15.63;6.00;;;3.20;99.90;;;;;;5010319;28;20420;-69
2023/12/08 00:13:00;;;;;;;12.70;4.80;;;3.20;99.90;;;;;;5009896;28;20888;-69
2023/12/08 00:15:26;;;;;;;12.45;5.40;;;3.20;99.90;;;;;;5009607;28;20470;-69
2023/12/08 00:17:51;;;;;;;14.97;6.00;;;3.20;99.90;;;;;;5009508;28;20385;-69
2023/12/08 00:20:17;;;;;;;12.97;6.23;;;3.30;99.90;;;;;;5001176;28;20400;-69
2023/12/08 00:22:42;;;;;;;13.60;5.53;;;3.30;99.90;;;;;;5009850;28;20393;-69
2023/12/08 00:25:08;;;;;;;14.65;5.65;;;3.20;99.90;;;;;;5010302;28;20405;-69
2023/12/08 00:27:35;;;;;;;11.93;5.20;;;3.20;99.90;;;;;;5010696;28;20405;-69
2023/12/08 00:30:01;;;;;;;23.52;6.07;;;3.20;99.90;;;;;;5009280;28;20915;-69
2023/12/08 00:32:26;;;;;;;15.40;5.93;;;3.20;99.90;;;;;;5009629;28;20479;-69
2023/12/08 00:34:53;;;;;;;13.57;5.80;;;2.90;99.90;;;;;;5009242;28;20400;-69
2023/12/08 00:37:19;;;;;;;14.63;5.97;;;3.00;99.90;;;;;;5017687;28;20426;-69
2023/12/08 00:39:44;;;;;;;12.77;5.50;;;3.10;99.90;;;;;;5010035;28;20397;-69
2023/12/08 00:42:10;;;;;;;11.20;4.70;;;3.00;99.90;;;;;;5024197;28;20403;-69
2023/12/08 00:44:35;;;;;;;15.13;6.10;;;3.10;99.90;;;;;;5029310;28;20399;-69
2023/12/08 00:47:01;;;;;;;14.80;6.07;;;3.30;99.90;;;;;;5017239;28;20753;-69
2023/12/08 00:49:26;;;;;;;16.30;6.60;;;3.20;99.90;;;;;;5009221;28;20503;-69
2023/12/08 00:51:52;;;;;;;16.10;5.43;;;2.80;99.90;;;;;;5009603;28;20889;-69
2023/12/08 00:54:17;;;;;;;12.80;5.53;;;2.70;99.90;;;;;;5023197;28;20430;-69
2023/12/08 00:56:43;;;;;;;12.30;5.63;;;2.70;99.90;;;;;;5012275;28;20409;-69
2023/12/08 00:59:09;;;;;;;13.40;5.55;;;2.70;99.90;;;;;;5021318;28;20387;-69
2023/12/08 01:01:34;;;;;;;13.03;5.10;;;2.80;99.90;;;;;;5029231;28;20391;-69
2023/12/08 01:04:00;;;;;;;13.98;5.32;;;2.90;99.90;;;;;;5017464;28;20411;-69
2023/12/08 01:06:25;;;;;;;14.33;5.37;;;2.90;99.90;;;;;;5013405;28;20397;-69
2023/12/08 01:08:51;;;;;;;13.25;5.68;;;2.90;99.90;;;;;;5009196;28;20880;-69
2023/12/08 01:11:17;;;;;;;16.17;6.40;;;2.90;99.90;;;;;;5011691;28;20393;-69
2023/12/08 01:13:42;;;;;;;15.30;5.60;;;2.90;99.90;;;;;;5018810;28;20476;-69
2023/12/08 01:16:08;;;;;;;11.48;5.05;;;3.00;99.90;;;;;;5010162;28;20428;-69
2023/12/08 01:18:34;;;;;;;15.70;4.55;;;3.00;99.90;;;;;;5011671;28;20491;-70
2023/12/08 01:20:59;;;;;;;15.60;5.87;;;3.20;99.90;;;;;;5018851;28;20397;-69
2023/12/08 01:23:25;;;;;;;16.23;5.07;;;3.20;99.90;;;;;;5009696;28;20385;-69
2023/12/08 01:25:51;;;;;;;12.33;5.27;;;3.00;99.90;;;;;;5016369;28;20956;-69
2023/12/08 01:28:17;;;;;;;13.73;5.47;;;2.90;99.90;;;;;;5008726;28;20420;-69
2023/12/08 01:30:42;;;;;;;17.23;5.43;;;3.10;99.90;;;;;;5009386;28;20470;-69
2023/12/08 01:33:08;;;;;;;11.63;4.70;;;3.20;99.90;;;;;;5008996;28;20443;-69
2023/12/08 01:35:33;;;;;;;12.60;4.65;;;3.20;99.90;;;;;;5009182;28;20924;-69
2023/12/08 01:37:59;;;;;;;15.77;5.47;;;3.20;99.90;;;;;;5008857;28;20451;-69
2023/12/08 01:40:25;;;;;;;13.70;5.80;;;3.40;99.90;;;;;;4976974;28;20401;-69
2023/12/08 01:42:51;;;;;;;13.55;5.38;;;3.40;99.90;;;;;;4999377;28;20819;-69
2023/12/08 01:45:16;;;;;;;14.10;6.30;;;3.40;99.90;;;;;;4989084;28;20398;-69
2023/12/08 01:47:43;;;;;;;14.88;5.55;;;3.40;99.90;;;;;;4988763;28;20425;-69
2023/12/08 01:50:11;;;;;;;12.73;5.20;;;3.40;99.90;;;;;;4989765;28;20453;-69
2023/12/08 01:52:37;;;;;;;14.52;5.22;;;3.40;99.90;;;;;;4989827;28;20402;-69
2023/12/08 01:55:03;;;;;;;16.92;6.20;;;3.50;99.90;;;;;;4989304;28;20440;-69
2023/12/08 01:57:29;;;;;;;13.45;6.10;;;3.50;99.90;;;;;;4989423;28;20430;-69
2023/12/08 01:59:55;;;;;;;13.27;5.07;;;3.50;99.90;;;;;;5000391;28;20428;-69
2023/12/08 02:02:21;;;;;;;14.07;6.17;;;3.50;99.90;;;;;;5008890;28;20403;-70
2023/12/08 02:04:49;;;;;;;12.38;5.32;;;3.50;99.90;;;;;;5009822;28;20389;-69
2023/12/08 02:07:15;;;;;;;15.75;5.65;;;3.50;99.90;;;;;;5012617;28;20399;-69
2023/12/08 02:09:41;;;;;;;16.80;6.23;;;3.70;99.90;;;;;;5011700;28;20420;-69
2023/12/08 02:12:09;;;;;;;12.40;5.78;;;3.70;99.90;;;;;;5012484;28;20411;-70
2023/12/08 02:14:34;;;;;;;14.85;5.82;;;3.80;99.90;;;;;;5012529;28;20808;-70
2023/12/08 02:17:13;;;;;;;13.55;5.22;;;3.70;99.90;;;;;;5012324;28;20376;-69
2023/12/08 02:19:38;;;;;;;13.70;6.20;;;3.70;99.90;;;;;;5006564;28;20399;-69
2023/12/08 02:22:05;;;;;;;12.57;4.70;;;3.70;99.90;;;;;;5012952;28;20821;-70
2023/12/08 02:24:30;;;;;;;14.30;5.95;;;3.60;99.90;;;;;;5012546;28;20396;-69
2023/12/08 02:26:56;;;;;;;13.97;5.37;;;3.50;99.90;;;;;;4994342;28;20400;-69
2023/12/08 02:29:21;;;;;;;13.38;5.63;;;3.60;99.90;;;;;;4996974;28;20434;-69
2023/12/08 02:32:05;;;;;;;14.73;5.30;;;3.60;99.90;;;;;;5001390;28;20754;-69
2023/12/08 02:34:33;;;;;;;13.15;5.35;;;3.50;99.90;;;;;;5003980;28;20407;-69
2023/12/08 02:37:00;;;;;;;15.35;6.13;;;3.50;99.90;;;;;;5005639;28;20405;-69
2023/12/08 02:39:27;;;;;;;14.05;6.43;;;3.40;99.90;;;;;;4992569;28;20759;-69
2023/12/08 02:41:53;;;;;;;17.45;6.32;;;3.50;99.90;;;;;;5005137;28;20397;-69
2023/12/08 02:44:18;;;;;;;14.60;6.00;;;3.50;99.90;;;;;;5011940;28;20431;-70
2023/12/08 02:46:44;;;;;;;11.97;4.90;;;3.50;99.90;;;;;;5010269;28;20403;-70
2023/12/08 02:49:10;;;;;;;13.90;5.53;;;3.50;99.90;;;;;;5011637;28;20500;-69
2023/12/08 02:51:35;;;;;;;14.40;6.00;;;3.60;99.90;;;;;;5010609;28;20727;-69
2023/12/08 02:54:01;;;;;;;14.33;5.93;;;3.50;99.90;;;;;;5011566;28;20450;-69
2023/12/08 02:56:26;;;;;;;13.95;5.70;;;3.50;99.90;;;;;;5007998;28;20806;-69
2023/12/08 02:58:52;;;;;;;13.43;5.70;;;3.50;99.90;;;;;;5011239;28;20961;-69
2023/12/08 03:01:17;;;;;;;16.05;6.03;;;3.50;99.90;;;;;;5009758;28;20404;-69
2023/12/08 03:03:43;;;;;;;15.33;5.83;;;3.40;99.90;;;;;;5011587;28;20404;-69
2023/12/08 03:06:08;;;;;;;12.87;5.60;;;3.40;99.90;;;;;;5012190;28;20388;-69
2023/12/08 03:08:34;;;;;;;16.75;6.65;;;3.50;99.90;;;;;;5011601;28;20580;-68
2023/12/08 03:10:59;;;;;;;14.87;5.57;;;3.50;99.90;;;;;;5011167;28;20539;-69
2023/12/08 03:13:25;;;;;;;13.45;6.10;;;3.50;99.90;;;;;;5007133;28;20430;-69
2023/12/08 03:15:50;;;;;;;16.97;6.17;;;3.50;99.90;;;;;;4999500;28;20470;-69
2023/12/08 03:18:16;;;;;;;13.00;6.38;;;3.50;99.90;;;;;;5009399;28;20908;-69
2023/12/08 03:20:41;;;;;;;15.60;6.30;;;3.40;99.90;;;;;;5010039;28;20516;-69
2023/12/08 03:23:07;;;;;;;13.95;6.03;;;3.20;99.90;;;;;;5003282;28;20391;-69
2023/12/08 03:25:32;;;;;;;14.17;6.10;;;3.30;99.90;;;;;;5010882;28;20394;-69
2023/12/08 03:27:58;;;;;;;14.10;6.30;;;3.20;99.90;;;;;;5011001;28;20420;-69
2023/12/08 03:30:23;;;;;;;17.00;6.38;;;3.20;99.90;;;;;;5010403;28;20393;-69
2023/12/08 03:32:49;;;;;;;18.10;6.07;;;3.20;99.90;;;;;;5010780;28;20538;-69
2023/12/08 03:35:14;;;;;;;18.77;6.43;;;3.10;99.90;;;;;;5011044;28;20404;-69
2023/12/08 03:37:40;;;;;;;10.70;4.70;;;3.10;99.90;;;;;;5010503;28;20487;-69
2023/12/08 03:40:07;;;;;;;21.15;7.05;;;3.20;99.90;;;;;;5010841;28;20753;-69
2023/12/08 03:42:36;;;;;;;16.00;6.00;;;3.20;99.90;;;;;;5011012;28;20431;-69
2023/12/08 03:45:03;;;;;;;12.57;5.53;;;3.20;99.90;;;;;;5010625;28;20397;-69
2023/12/08 03:47:28;;;;;;;18.42;7.53;;;3.20;99.90;;;;;;5010605;28;20391;-69
2023/12/08 03:49:54;;;;;;;18.58;5.88;;;3.20;99.90;;;;;;5008899;28;20416;-69
2023/12/08 03:52:19;;;;;;;13.20;5.30;;;3.20;99.90;;;;;;5008989;28;20405;-69
2023/12/08 03:54:45;;;;;;;16.93;6.40;;;3.20;99.90;;;;;;5010350;28;20734;-69
2023/12/08 03:57:10;;;;;;;14.07;6.55;;;3.20;99.90;;;;;;5010239;28;20416;-69
2023/12/08 03:59:35;;;;;;;13.03;5.80;;;3.20;99.90;;;;;;5010330;28;20401;-69
2023/12/08 04:02:02;;;;;;;12.70;4.95;;;3.30;99.90;;;;;;5010146;28;21098;-69
2023/12/08 04:04:27;;;;;;;14.32;5.88;;;3.20;99.90;;;;;;5010419;28;20401;-69
2023/12/08 04:06:56;;;;;;;13.70;5.50;;;3.10;99.90;;;;;;5008059;28;20406;-69
2023/12/08 04:09:22;;;;;;;14.63;5.00;;;3.10;99.90;;;;;;4985466;28;20436;-69
2023/12/08 04:11:48;;;;;;;13.05;6.30;;;3.00;99.90;;;;;;5006731;28;20402;-69
2023/12/08 04:14:13;;;;;;;12.73;4.50;;;3.10;99.90;;;;;;4990839;28;20444;-68
2023/12/08 04:16:39;;;;;;;15.98;5.50;;;3.20;99.90;;;;;;5007999;28;20428;-68
2023/12/08 04:19:05;;;;;;;14.90;5.70;;;3.30;99.90;;;;;;5010917;28;20431;-68
2023/12/08 04:21:30;;;;;;;13.48;5.43;;;3.40;99.90;;;;;;5009419;28;20807;-68
2023/12/08 04:23:56;;;;;;;15.55;5.70;;;3.40;99.90;;;;;;5010089;28;20401;-69
2023/12/08 04:26:24;;;;;;;14.20;4.90;;;3.30;99.90;;;;;;5009002;28;20834;-69
2023/12/08 04:28:51;;;;;;;16.73;5.50;;;3.30;99.90;;;;;;5009108;28;20429;-69
2023/12/08 04:31:17;;;;;;;13.98;6.13;;;3.50;99.90;;;;;;5003319;28;20460;-69
2023/12/08 04:33:43;;;;;;;15.73;5.30;;;3.50;99.90;;;;;;5001693;28;20836;-69
2023/12/08 04:36:08;;;;;;;15.30;5.35;;;3.50;99.90;;;;;;5009930;28;20384;-69
2023/12/08 04:38:34;;;;;;;11.40;5.20;;;3.50;99.90;;;;;;5010926;28;20404;-69
2023/12/08 04:40:59;;;;;;;14.90;5.40;;;3.50;99.90;;;;;;5001632;28;20410;-70
2023/12/08 04:43:25;;;;;;;14.43;5.70;;;3.40;99.90;;;;;;4995949;28;20893;-69
2023/12/08 04:45:50;;;;;;;11.75;5.45;;;3.50;99.90;;;;;;5009238;28;20421;-69
2023/12/08 04:48:16;;;;;;;12.93;5.37;;;3.60;99.90;;;;;;4997678;28;20480;-69
2023/12/08 04:50:42;;;;;;;10.32;5.20;;;3.60;99.90;;;;;;4990258;28;20777;-69
2023/12/08 04:53:07;;;;;;;12.45;5.82;;;3.50;99.90;;;;;;4981740;28;20425;-69
2023/12/08 04:55:33;;;;;;;12.97;5.23;;;3.40;99.90;;;;;;4996172;28;20489;-69
2023/12/08 04:57:59;;;;;;;16.95;4.97;;;3.30;99.90;;;;;;4990459;28;20401;-69
2023/12/08 05:00:25;;;;;;;13.87;5.93;;;3.30;99.90;;;;;;4997288;28;20447;-69
2023/12/08 05:02:50;;;;;;;12.73;5.40;;;3.30;99.90;;;;;;4996293;28;20412;-69
2023/12/08 05:05:16;;;;;;;12.70;4.70;;;3.30;99.90;;;;;;5002231;28;20412;-69
2023/12/08 05:07:41;;;;;;;14.73;5.23;;;3.20;99.90;;;;;;4978634;28;20509;-69
2023/12/08 05:10:07;;;;;;;11.77;5.30;;;3.20;99.90;;;;;;4981818;28;20781;-69
2023/12/08 05:12:33;;;;;;;12.00;4.75;;;3.30;99.90;;;;;;4987004;28;20527;-69
2023/12/08 05:14:59;;;;;;;11.55;5.30;;;3.30;99.90;;;;;;4969775;28;20981;-69
2023/12/08 05:17:24;;;;;;;10.48;5.40;;;3.40;99.90;;;;;;4988862;28;20441;-69
2023/12/08 05:19:50;;;;;;;10.60;4.90;;;3.50;99.90;;;;;;4990780;28;20417;-69
2023/12/08 05:22:15;;;;;;;15.25;6.20;;;3.60;99.90;;;;;;4990269;28;20771;-70
2023/12/08 05:24:41;;;;;;;19.93;4.97;;;3.70;99.90;;;;;;4978769;28;20495;-69
2023/12/08 05:27:06;;;;;;;14.73;6.00;;;3.60;99.90;;;;;;4988916;28;20450;-69
2023/12/08 05:29:32;;;;;;;12.00;5.30;;;3.60;99.90;;;;;;4976560;28;20424;-69
2023/12/08 05:31:57;;;;;;;16.80;4.97;;;3.50;99.90;;;;;;4989261;28;20432;-69
2023/12/08 05:34:23;;;;;;;13.30;5.40;;;3.40;99.90;;;;;;4997024;28;20432;-69
2023/12/08 05:36:48;;;;;;;14.60;5.30;;;3.40;99.90;;;;;;5005412;28;20435;-69
2023/12/08 05:39:14;;;;;;;13.18;5.57;;;3.50;99.90;;;;;;4982806;28;20841;-69
2023/12/08 05:41:40;;;;;;;16.90;5.47;;;3.40;99.90;;;;;;4978137;28;20411;-71
2023/12/08 05:44:05;;;;;;;13.93;5.83;;;3.30;99.90;;;;;;4997356;28;20427;-70
2023/12/08 05:46:31;;;;;;;11.80;4.55;;;3.30;99.90;;;;;;4999925;28;20408;-67
2023/12/08 05:48:56;;;;;;;12.90;4.73;;;3.20;99.90;;;;;;5002496;28;20901;-70
2023/12/08 05:51:22;;;;;;;15.67;5.90;;;3.20;99.90;;;;;;4987598;28;20416;-68
2023/12/08 05:53:47;;;;;;;16.50;5.77;;;3.20;99.90;;;;;;4976114;28;20412;-68
2023/12/08 05:56:13;;;;;;;20.07;6.20;;;3.20;99.90;;;;;;5003495;28;20396;-68
2023/12/08 05:58:38;;;;;;;16.98;5.15;;;3.20;99.90;;;;;;5010168;28;20404;-68
2023/12/08 06:01:04;;;;;;;13.57;5.20;;;3.20;99.90;;;;;;5012828;28;20396;-68
2023/12/08 06:03:30;;;;;;;16.50;5.50;;;3.30;1.00;;;;;;5012727;28;20409;-68
2023/12/08 06:05:55;;;;;;;15.13;4.88;;;3.40;1.00;;;;;;5012399;28;20857;-68
2023/12/08 06:08:21;;;;;;;16.53;5.33;;;3.40;1.00;;;;;;5006472;28;20484;-68
2023/12/08 06:10:46;;;;;;;15.60;5.87;;;3.40;1.00;;;;;;4992648;28;20909;-68
2023/12/08 06:13:13;;;;;;;16.33;5.25;;;3.50;1.00;;;;;;4994561;28;20476;-68
2023/12/08 06:15:39;;;;;;;11.27;4.82;;;3.40;1.00;;;;;;4993051;28;20402;-68
2023/12/08 06:18:04;;;;;;;12.93;5.20;;;3.50;1.00;;;;;;4993971;28;20436;-69
2023/12/08 06:20:30;;;;;;;11.35;5.00;;;3.50;1.00;;;;;;4993162;28;20510;-69
2023/12/08 06:22:55;;;;;;;13.53;4.83;;;3.60;1.00;;;;;;4998417;28;20991;-69
2023/12/08 06:25:21;;;;;;;12.65;5.13;;;3.50;1.00;;;;;;5003432;28;20409;-69
2023/12/08 06:27:47;;;;;;;14.40;5.67;;;3.50;1.00;;;;;;4992711;28;20444;-71
2023/12/08 06:30:12;;;;;;;16.67;5.80;;;3.50;1.00;;;;;;5008511;28;20393;-69
2023/12/08 06:32:38;;;;;;;12.60;5.40;;;3.60;1.00;;;;;;4980335;28;20389;-69
2023/12/08 06:35:04;;;;;;;17.83;5.20;;;3.60;1.00;;;;;;4992398;28;20906;-69
2023/12/08 06:37:29;;;;;;;13.57;5.07;;;3.60;1.00;;;;;;4999189;28;20781;-69
2023/12/08 06:39:55;;;;;;;14.97;5.03;;;3.70;1.00;;;;;;5010890;28;20765;-69
2023/12/08 06:42:21;;;;;;;15.50;5.20;;;3.80;1.00;;;;;;5010882;28;20431;-69
2023/12/08 06:44:47;;;;;;;16.60;4.07;;;3.90;1.00;;;;;;5009858;28;20396;-69
2023/12/08 06:47:13;;;;;;;13.15;4.20;;;4.00;1.00;;;;;;5010047;28;20388;-69
2023/12/08 06:49:38;;;;;;;14.80;4.63;;;4.00;1.00;;;;;;5009993;28;20420;-69
2023/12/08 06:52:04;;;;;;;15.23;4.90;;;4.10;1.00;;;;;;5009909;28;20427;-69
2023/12/08 06:54:31;;;;;;;9.87;4.30;;;4.20;1.00;;;;;;5009095;28;20524;-69
2023/12/08 06:56:56;;;;;;;14.65;4.30;;;4.30;1.00;;;;;;5009484;28;20388;-69
2023/12/08 06:59:22;;;;;;;14.20;4.50;;;4.40;1.00;;;;;;5009523;28;20404;-69
2023/12/08 07:01:47;;;;;;;14.70;4.72;;;4.50;1.00;;;;;;5010602;28;20404;-69
2023/12/08 07:04:13;;;;;;;12.77;5.40;;;4.40;1.00;;;;;;5009399;28;20448;-69
2023/12/08 07:06:39;;;;;;;15.73;6.53;;;4.50;1.00;;;;;;5010065;28;20768;-69
2023/12/08 07:09:05;;;;;;;12.70;5.40;;;4.50;1.00;;;;;;4993253;28;20409;-69
2023/12/08 07:11:30;;;;;;;12.90;5.03;;;4.50;1.00;;;;;;5011093;28;20405;-69
2023/12/08 07:13:56;;;;;;;14.32;5.50;;;4.40;1.00;;;;;;5012035;28;20875;-68
2023/12/08 07:16:22;;;;;;;14.00;5.80;;;4.20;1.00;;;;;;5015028;28;20472;-69
2023/12/08 07:18:47;;;;;;;17.03;5.77;;;4.10;1.00;;;;;;5011672;28;20405;-69
2023/12/08 07:21:12;;;;;;;14.30;5.37;;;4.00;1.00;;;;;;5011185;28;20789;-69
2023/12/08 07:23:40;;;;;;;13.65;5.35;;;3.90;1.00;;;;;;5011954;28;20381;-69
2023/12/08 07:26:05;;;;;;;13.27;5.07;;;3.80;1.00;;;;;;5011246;28;20393;-69
2023/12/08 07:28:31;;;;;;;16.33;4.83;;;3.80;1.00;;;;;;5011083;28;20424;-69
2023/12/08 07:30:56;;;;;;;16.83;6.25;;;3.80;1.00;;;;;;5011370;28;20784;-69
2023/12/08 07:33:22;;;;;;;11.23;5.57;;;3.80;1.00;;;;;;5011087;28;20895;-69
2023/12/08 07:35:48;;;;;;;13.10;5.87;;;3.90;1.00;;;;;;5011191;28;20385;-69
2023/12/08 07:38:13;;;;;;;13.97;5.77;;;3.90;1.00;;;;;;5010637;28;20420;-69
2023/12/08 07:40:39;;;;;;;13.02;5.70;;;3.90;1.00;;;;;;5011061;28;20471;-69
2023/12/08 07:43:04;;;;;;;13.83;5.67;;;3.90;1.00;;;;;;5011296;28;20885;-69
2023/12/08 07:45:30;;;;;;;14.07;6.60;;;4.10;1.00;;;;;;5010691;28;20432;-69
2023/12/08 07:47:55;;;;;;;15.60;6.67;;;4.10;1.00;;;;;;5010784;28;20432;-69
2023/12/08 07:50:21;;;;;;;15.75;6.97;;;4.20;1.00;;;;;;4992987;28;20389;-69
2023/12/08 07:52:46;;;;;;;12.90;5.90;;;4.10;1.00;;;;;;5010438;28;20900;-69
2023/12/08 07:55:12;;;;;;;17.42;6.38;;;4.10;1.00;;;;;;5010427;28;20400;-69
2023/12/08 07:57:38;;;;;;;12.60;6.47;;;4.10;1.00;;;;;;5011135;28;20405;-69
2023/12/08 08:00:10;;;;;;;13.27;5.63;;;4.10;1.00;;;;;;5010303;28;20768;-69
2023/12/08 08:02:36;;;;;;;18.63;6.68;;;4.00;1.00;;;;;;5010137;28;20412;-69
2023/12/08 08:05:01;;;;;;;18.13;6.60;;;4.00;1.00;;;;;;5010513;28;20400;-69
2023/12/08 08:07:28;;;;;;;11.70;5.40;;;4.10;1.00;;;;;;5010790;28;20385;-70
2023/12/08 08:09:53;;;;;;;14.67;5.23;;;4.20;1.00;;;;;;5010299;28;20765;-69
2023/12/08 08:12:18;;;;;;;13.37;4.90;;;4.40;1.00;;;;;;5010407;28;20376;-71
2023/12/08 08:14:44;;;;;;;14.73;5.03;;;4.40;1.00;;;;;;4992385;28;20404;-69
2023/12/08 08:17:10;;;;;;;12.55;4.50;;;4.30;1.00;;;;;;5010330;28;20389;-69
2023/12/08 08:19:35;;;;;;;16.03;5.13;;;4.30;1.00;;;;;;5010509;28;20385;-69
2023/12/08 08:22:01;;;;;;;12.73;5.40;;;4.20;1.00;;;;;;5010310;28;20746;-69
2023/12/08 08:24:27;;;;;;;15.10;6.20;;;4.20;1.00;;;;;;5010172;28;20877;-69
2023/12/08 08:26:52;;;;;;;17.85;6.45;;;4.20;1.00;;;;;;5010244;28;20873;-69
2023/12/08 08:29:18;;;;;;;12.45;4.70;;;4.30;1.00;;;;;;5009586;28;20900;-69
2023/12/08 08:31:44;;;;;;;14.30;5.33;;;4.40;1.00;;;;;;5010147;28;20424;-69
2023/12/08 08:34:09;;;;;;;10.48;4.30;;;4.30;1.00;;;;;;5009520;28;20439;-69
2023/12/08 08:36:35;;;;;;;11.10;4.57;;;4.50;7.60;;;;;;5009997;28;20404;-69
2023/12/08 08:39:03;;;;;;;12.85;5.63;;;4.60;30.00;;;;;;5009747;28;20731;-71
2023/12/08 08:41:28;;;;;;;23.50;7.47;;;4.90;1.00;;;;;;4992286;28;20401;-70
2023/12/08 08:43:55;;;;;;;14.47;6.23;;;5.00;1.00;;;;;;5009657;28;20450;-71
2023/12/08 08:46:20;;;;;;;20.40;6.13;;;5.00;1.00;;;;;;5009676;28;20431;-70
2023/12/08 08:48:46;;;;;;;19.85;5.68;;;5.20;1.00;;;;;;5009650;28;20424;-70
2023/12/08 08:51:16;;;;;;;19.40;8.18;;;5.40;1.00;;;;;;5009199;28;21287;-70
2023/12/08 08:53:42;;;;;;;16.60;7.57;;;5.40;1.00;;;;;;5009397;28;20385;-70
2023/12/08 08:56:07;;;;;;;12.52;5.53;;;5.20;1.00;;;;;;5010025;28;20451;-70
2023/12/08 08:58:34;;;;;;;13.32;6.10;;;5.30;1.00;;;;;;5009582;28;20392;-70
2023/12/08 09:00:59;;;;;;;12.23;5.70;;;5.30;1.00;;;;;;5009538;28;20780;-70
2023/12/08 09:03:25;;;;;;;15.05;6.72;;;5.30;1.00;;;;;;5009669;28;20381;-70
2023/12/08 09:05:51;;;;;;;17.60;6.00;;;5.30;1.00;;;;;;4991689;28;20436;-70
2023/12/08 09:08:16;;;;;;;16.95;5.93;;;5.50;1.00;;;;;;5009435;28;20892;-70
2023/12/08 09:10:45;;;;;;;18.87;6.13;;;5.60;1.00;;;;;;5009331;28;20388;-70
2023/12/08 09:13:11;;;;;;;41.58;19.10;;;5.70;1.00;;;;;;5009295;28;20470;-71
2023/12/08 09:15:36;;;;;;;53.27;26.00;;;5.80;1.00;;;;;;5009383;28;20408;-70
2023/12/08 09:18:03;;;;;;;52.25;21.52;;;5.90;1.00;;;;;;5009329;28;20450;-70
2023/12/08 09:20:28;;;;;;;35.90;15.35;;;6.00;1.00;;;;;;5009404;28;20393;-70
2023/12/08 09:22:54;;;;;;;37.20;20.47;;;6.00;1.00;;;;;;5009053;28;20381;-70
2023/12/08 09:25:19;;;;;;;30.50;15.40;;;6.00;1.00;;;;;;5009371;28;20389;-70
2023/12/08 09:27:45;;;;;;;22.73;11.87;;;6.00;1.00;;;;;;5009282;28;20738;-70
2023/12/08 09:30:11;;;;;;;22.30;8.57;;;6.00;1.00;;;;;;5009198;28;20448;-70
2023/12/08 09:32:37;;;;;;;19.05;7.75;;;6.20;1.00;;;;;;5009643;28;20381;-70
2023/12/08 09:35:03;;;;;;;12.50;5.85;;;6.20;1.00;;;;;;5008722;28;20404;-70
2023/12/08 09:37:28;;;;;;;11.87;5.33;;;6.30;1.00;;;;;;5009177;28;21082;-70
2023/12/08 09:39:54;;;;;;;10.70;4.38;;;6.30;1.00;;;;;;5008719;28;20400;-70
2023/12/08 09:42:36;;;;;;;9.90;4.10;;;6.40;1.00;;;;;;5009176;28;20397;-71
2023/12/08 09:45:04;;;;;;;13.63;3.83;;;6.30;1.00;;;;;;5008907;28;20975;-70
2023/12/08 09:47:35;;;;;;;11.48;4.20;;;6.20;1.00;;;;;;5008939;28;20474;-70
2023/12/08 09:50:07;;;;;;;9.17;3.33;;;6.20;1.00;;;;;;5008891;28;20817;-70
2023/12/08 09:52:34;;;;;;;9.90;3.72;;;6.30;1.00;;;;;;5009066;28;20876;-70
2023/12/08 09:55:00;;;;;;;13.30;3.63;;;6.30;1.00;;;;;;5008866;28;20388;-70
2023/12/08 09:57:29;;;;;;;9.80;4.10;;;6.50;1.00;;;;;;5008826;28;20849;-70
2023/12/08 10:00:05;;;;;;;9.98;3.55;;;6.60;1.00;;;;;;5008867;28;20392;-70
2023/12/08 10:02:32;;;;;;;8.60;3.40;;;6.70;1.00;;;;;;5008577;28;20810;-70
2023/12/08 10:04:57;;;;;;;12.05;4.30;;;6.70;1.00;;;;;;5008286;28;20412;-70
2023/12/08 10:07:24;;;;;;;11.20;4.00;;;6.80;1.00;;;;;;5008844;28;20900;-70
2023/12/08 10:09:50;;;;;;;9.02;3.40;;;6.80;1.00;;;;;;5008572;28;20421;-70
2023/12/08 10:12:16;;;;;;;8.88;3.42;;;6.80;1.00;;;;;;5008655;28;20416;-70
2023/12/08 10:14:53;;;;;;;12.60;4.80;;;6.90;1.00;;;;;;5008710;28;20403;-70
2023/12/08 10:17:20;;;;;;;12.23;4.35;;;7.10;1.00;;;;;;5008345;28;20800;-69
2023/12/08 10:19:46;;;;;;;13.07;5.60;;;7.10;1.00;;;;;;5008753;28;20809;-69
2023/12/08 10:22:11;;;;;;;16.13;5.05;;;7.10;1.00;;;;;;5009202;28;20388;-69
2023/12/08 10:24:37;;;;;;;13.60;5.70;;;7.10;1.00;;;;;;5009201;28;20397;-70
2023/12/08 10:27:03;;;;;;;14.68;7.72;;;7.10;1.00;;;;;;5011826;28;20408;-69
2023/12/08 10:29:30;;;;;;;13.45;7.53;;;7.20;1.00;;;;;;5012609;28;20586;-69
2023/12/08 10:31:57;;;;;;;22.40;10.98;;;7.20;1.00;;;;;;5011998;28;20892;-69
2023/12/08 10:34:23;;;;;;;18.17;7.13;;;7.30;1.00;;;;;;5012396;28;20400;-70
2023/12/08 10:36:49;;;;;;;16.27;7.27;;;7.30;1.00;;;;;;5011984;28;20801;-70
2023/12/08 10:39:16;;;;;;;16.67;8.32;;;7.30;1.00;;;;;;5012191;28;20405;-70
2023/12/08 10:41:41;;;;;;;17.63;7.55;;;7.30;1.00;;;;;;5012266;28;20401;-69
2023/12/08 10:44:08;;;;;;;22.40;7.30;;;7.20;1.00;;;;;;5012850;28;20800;-69
2023/12/08 10:46:35;;;;;;;15.70;7.70;;;7.20;1.00;;;;;;5012268;28;20752;-69
2023/12/08 10:49:01;;;;;;;20.75;8.55;;;7.20;1.00;;;;;;5011665;28;20592;-69
2023/12/08 10:51:28;;;;;;;20.13;9.05;;;7.10;1.00;;;;;;5011615;28;20877;-69
2023/12/08 10:53:55;;;;;;;16.40;7.30;;;7.10;1.00;;;;;;5012529;28;20408;-69
2023/12/08 10:56:21;;;;;;;15.73;7.10;;;7.10;1.00;;;;;;5011572;28;20415;-69
2023/12/08 10:59:01;;;;;;;14.67;6.80;;;7.10;1.00;;;;;;5012063;28;20389;-69
2023/12/08 11:01:29;;;;;;;14.65;6.90;;;7.00;1.00;;;;;;5011442;28;20524;-69
2023/12/08 11:04:01;;;;;;;22.27;7.60;;;7.00;1.00;;;;;;5011269;28;20397;-69
2023/12/08 11:06:33;;;;;;;16.60;7.40;;;6.90;1.00;;;;;;5011698;28;20393;-69
2023/12/08 11:09:01;;;;;;;14.98;6.70;;;6.80;1.00;;;;;;5011437;28;20997;-69
2023/12/08 11:11:29;;;;;;;15.77;7.70;;;6.90;1.00;;;;;;5011463;28;20439;-69
2023/12/08 11:14:05;;;;;;;12.02;6.28;;;7.00;1.00;;;;;;5011008;28;20464;-69
2023/12/08 11:16:49;;;;;;;15.93;7.18;;;7.20;1.00;;;;;;5010976;28;20523;-70
2023/12/08 11:19:16;;;;;;;15.90;8.88;;;7.30;1.00;;;;;;5011232;28;20401;-69
2023/12/08 11:21:42;;;;;;;16.55;8.38;;;7.40;1.00;;;;;;5011223;28;20401;-69
2023/12/08 11:24:09;;;;;;;14.10;7.00;;;7.50;1.00;;;;;;5012341;28;20385;-69
2023/12/08 11:27:02;;;;;;;22.75;7.00;;;7.70;1.00;;;;;;5011856;28;20793;-69
2023/12/08 11:29:49;;;;;;;15.55;6.55;;;7.80;1.00;;;;;;5011136;28;20424;-69
2023/12/08 11:32:19;;;;;;;14.25;7.28;;;7.80;1.00;;;;;;5010953;28;20397;-69
2023/12/08 11:34:59;;;;;;;14.90;6.45;;;7.80;1.00;;;;;;5010645;28;20727;-69
2023/12/08 11:37:29;;;;;;;18.08;7.18;;;8.00;1.00;;;;;;5009558;28;20456;-69
2023/12/08 11:40:11;;;;;;;14.07;5.85;;;8.00;1.00;;;;;;5011205;28;20835;-69
2023/12/08 11:42:37;;;;;;;16.10;7.45;;;8.10;1.00;;;;;;5011684;28;20385;-69
2023/12/08 11:45:07;;;;;;;18.48;6.93;;;8.30;1.00;;;;;;5010750;28;20912;-69
2023/12/08 11:47:34;;;;;;;14.83;7.00;;;8.40;1.00;;;;;;5011116;28;20452;-69
2023/12/08 11:50:05;;;;;;;17.42;7.20;;;8.50;1.00;;;;;;5010425;28;20939;-68
2023/12/08 11:52:33;;;;;;;13.83;6.77;;;8.60;1.00;;;;;;5010939;28;20420;-68
2023/12/08 11:55:24;;;;;;;14.52;6.90;;;8.70;1.00;;;;;;5010748;28;20829;-68
2023/12/08 11:57:58;;;;;;;14.10;6.20;;;8.70;1.00;;;;;;5010233;28;20761;-68
2023/12/08 12:00:25;;;;;;;14.80;5.78;;;8.90;1.00;;;;;;5010438;28;20462;-68
2023/12/08 12:02:54;;;;;;;16.38;6.60;;;9.10;1.00;;;;;;5010483;28;20397;-68
2023/12/08 12:05:20;;;;;;;10.90;5.70;;;9.20;1.00;;;;;;5010830;28;20392;-69
2023/12/08 12:07:49;;;;;;;14.30;7.00;;;9.20;1.00;;;;;;5010494;28;20439;-69
2023/12/08 12:10:23;;;;;;;15.20;6.50;;;9.30;1.00;;;;;;5010331;28;20467;-68
2023/12/08 12:12:51;;;;;;;13.10;6.60;;;9.20;1.00;;;;;;5009974;28;20393;-68
2023/12/08 12:15:19;;;;;;;12.85;5.50;;;9.10;1.00;;;;;;5010384;28;20404;-68
2023/12/08 12:17:45;;;;;;;14.38;5.82;;;9.00;1.00;;;;;;5010385;28;20407;-68
2023/12/08 12:20:11;;;;;;;15.50;6.47;;;9.00;1.00;;;;;;5010795;28;20420;-68
2023/12/08 12:22:39;;;;;;;12.98;5.93;;;8.90;1.00;;;;;;5025717;28;20510;-69
2023/12/08 12:25:10;;;;;;;17.35;7.63;;;9.00;1.00;;;;;;5009607;28;20927;-69
2023/12/08 12:27:43;;;;;;;22.30;9.05;;;9.10;1.00;;;;;;5013727;28;20737;-69
2023/12/08 12:30:10;;;;;;;16.37;8.17;;;9.30;1.00;;;;;;5022071;28;20512;-69
2023/12/08 12:32:36;;;;;;;16.23;6.82;;;9.50;1.00;;;;;;5020199;28;20897;-69
2023/12/08 12:35:02;;;;;;;14.30;6.70;;;9.60;1.00;;;;;;5005226;28;20494;-69
2023/12/08 12:37:27;;;;;;;14.82;7.20;;;9.80;1.00;;;;;;5008542;28;20517;-69
2023/12/08 12:39:53;;;;;;;13.83;6.77;;;10.00;1.00;;;;;;5002994;28;20419;-69
2023/12/08 12:42:19;;;;;;;11.60;5.30;;;10.10;1.00;;;;;;5003203;28;20418;-69
2023/12/08 12:44:46;;;;;;;15.15;6.28;;;10.10;1.00;;;;;;4999759;28;20410;-68
2023/12/08 12:47:14;;;;;;;19.27;5.63;;;10.10;1.00;;;;;;4998932;28;20492;-68
2023/12/08 12:50:16;;;;;;;18.55;8.55;;;10.10;1.00;;;;;;4990565;28;20425;-68